createdAt,value
2023-04-23T00:00:10.023Z,0.00
2023-04-23T00:01:10.649Z,0.00
2023-04-23T00:02:11.531Z,0.00
2023-04-23T00:03:12.306Z,0.00
2023-04-23T00:04:13.154Z,0.00
2023-04-23T00:05:13.255Z,0.00
2023-04-23T00:06:14.168Z,0.00
2023-04-23T00:07:14.745Z,0.00
2023-04-23T00:08:16.666Z,0.00
2023-04-23T00:09:15.696Z,0.00
2023-04-23T00:10:17.290Z,0.00
2023-04-23T00:10:25.905Z,0.00
2023-04-23T00:11:26.532Z,0.00
2023-04-23T00:12:27.341Z,0.00
2023-04-23T00:13:27.496Z,0.00
2023-04-23T00:14:28.084Z,0.00
2023-04-23T00:15:29.710Z,0.00
2023-04-23T00:16:29.568Z,0.00
2023-04-23T00:17:30.205Z,0.00
2023-04-23T00:18:30.841Z,0.00
2023-04-23T00:19:31.438Z,0.00
2023-04-23T00:20:32.091Z,0.00
2023-04-23T00:21:32.800Z,0.00
2023-04-23T00:22:34.426Z,0.00
2023-04-23T00:22:43.028Z,0.00
2023-04-23T00:23:43.617Z,0.00
2023-04-23T00:24:44.195Z,0.00
2023-04-23T00:25:44.737Z,0.00
2023-04-23T00:26:46.296Z,0.00
2023-04-23T00:27:45.487Z,0.00
2023-04-23T00:28:47.009Z,0.00
2023-04-23T00:29:46.643Z,0.00
2023-04-23T00:30:47.200Z,0.00
2023-04-23T00:31:47.334Z,0.00
2023-04-23T00:32:47.953Z,0.00
2023-04-23T00:32:56.644Z,0.00
2023-04-23T00:33:57.179Z,0.00
2023-04-23T00:34:57.703Z,0.00
2023-04-23T00:35:58.982Z,0.00
2023-04-23T00:36:58.485Z,0.00
2023-04-23T00:37:59.459Z,0.00
2023-04-23T00:39:00.948Z,0.00
2023-04-23T00:40:01.488Z,0.00
2023-04-23T00:41:01.059Z,0.00
2023-04-23T00:42:01.966Z,0.00
2023-04-23T00:43:02.529Z,0.00
2023-04-23T00:44:02.510Z,0.00
2023-04-23T00:44:17.613Z,0.00
2023-04-23T00:45:18.004Z,0.00
2023-04-23T00:46:21.798Z,0.00
2023-04-23T00:47:19.320Z,0.00
2023-04-23T00:48:19.889Z,0.00
2023-04-23T00:49:20.753Z,0.00
2023-04-23T00:50:21.396Z,0.00
2023-04-23T00:51:21.931Z,0.00
2023-04-23T00:52:22.470Z,0.00
2023-04-23T00:53:22.522Z,0.00
2023-04-23T00:54:22.871Z,0.00
2023-04-23T00:55:23.461Z,0.00
2023-04-23T00:55:33.636Z,0.00
2023-04-23T00:56:34.382Z,0.00
2023-04-23T00:57:34.906Z,0.00
2023-04-23T00:58:35.360Z,0.00
2023-04-23T00:59:36.885Z,0.00
2023-04-23T01:00:36.007Z,0.00
2023-04-23T01:01:36.149Z,0.00
2023-04-23T01:02:36.945Z,0.00
2023-04-23T01:03:37.447Z,0.00
2023-04-23T01:04:37.443Z,0.00
2023-04-23T01:05:37.715Z,0.00
2023-04-23T01:06:38.200Z,0.00
2023-04-23T01:06:48.454Z,0.00
2023-04-23T01:07:49.115Z,0.00
2023-04-23T01:08:49.951Z,0.00
2023-04-23T01:09:50.754Z,0.00
2023-04-23T01:10:51.242Z,0.00
2023-04-23T01:11:51.992Z,0.00
2023-04-23T01:12:52.560Z,0.00
2023-04-23T01:13:52.800Z,0.00
2023-04-23T01:14:53.397Z,0.00
2023-04-23T01:15:55.055Z,0.00
2023-04-23T01:16:55.024Z,0.00
2023-04-23T01:17:55.851Z,0.00
2023-04-23T01:18:07.464Z,0.00
2023-04-23T01:19:07.968Z,0.00
2023-04-23T01:20:09.609Z,0.00
2023-04-23T01:21:09.179Z,0.00
2023-04-23T01:22:10.992Z,0.00
2023-04-23T01:23:10.579Z,0.00
2023-04-23T01:24:11.216Z,0.00
2023-04-23T01:25:11.855Z,0.00
2023-04-23T01:26:12.422Z,0.00
2023-04-23T01:27:13.242Z,0.00
2023-04-23T01:28:13.990Z,0.00
2023-04-23T01:29:14.995Z,0.00
2023-04-23T01:29:24.117Z,0.00
2023-04-23T01:30:23.924Z,0.00
2023-04-23T01:31:24.697Z,0.00
2023-04-23T01:32:25.305Z,0.00
2023-04-23T01:33:25.376Z,0.00
2023-04-23T01:34:26.363Z,0.00
2023-04-23T01:35:26.974Z,0.00
2023-04-23T01:36:27.545Z,0.00
2023-04-23T01:37:28.140Z,0.00
2023-04-23T01:38:28.784Z,0.00
2023-04-23T01:39:29.621Z,0.00
2023-04-23T01:40:30.438Z,0.00
2023-04-23T01:40:39.068Z,0.00
2023-04-23T01:41:39.504Z,0.00
2023-04-23T01:42:40.774Z,0.00
2023-04-23T01:43:40.375Z,0.00
2023-04-23T01:44:41.264Z,0.00
2023-04-23T01:45:41.571Z,0.00
2023-04-23T01:46:42.175Z,0.00
2023-04-23T01:47:42.784Z,0.00
2023-04-23T01:48:43.651Z,0.00
2023-04-23T01:49:44.610Z,0.00
2023-04-23T01:50:44.009Z,0.00
2023-04-23T01:50:55.627Z,0.00
2023-04-23T01:51:55.834Z,0.00
2023-04-23T01:52:56.570Z,0.00
2023-04-23T01:53:57.174Z,0.00
2023-04-23T01:54:57.704Z,0.00
2023-04-23T01:55:58.687Z,0.00
2023-04-23T01:56:59.275Z,0.00
2023-04-23T01:57:59.784Z,0.00
2023-04-23T01:59:00.354Z,0.00
2023-04-23T02:00:00.978Z,0.00
2023-04-23T02:01:01.795Z,0.00
2023-04-23T02:01:10.580Z,0.00
2023-04-23T02:02:10.935Z,0.00
2023-04-23T02:03:11.140Z,0.00
2023-04-23T02:04:11.747Z,0.00
2023-04-23T02:05:12.277Z,0.00
2023-04-23T02:06:12.926Z,0.00
2023-04-23T02:07:13.512Z,0.00
2023-04-23T02:08:14.175Z,0.00
2023-04-23T02:09:14.768Z,0.00
2023-04-23T02:10:15.396Z,0.00
2023-04-23T02:11:15.497Z,0.00
2023-04-23T02:12:16.094Z,0.00
2023-04-23T02:13:16.664Z,0.00
2023-04-23T02:13:26.413Z,0.00
2023-04-23T02:14:27.300Z,0.00
2023-04-23T02:15:27.825Z,0.00
2023-04-23T02:16:28.607Z,0.00
2023-04-23T02:17:29.268Z,0.00
2023-04-23T02:18:29.630Z,0.00
2023-04-23T02:19:31.526Z,0.00
2023-04-23T02:20:31.877Z,0.00
2023-04-23T02:21:31.531Z,0.00
2023-04-23T02:22:31.631Z,0.00
2023-04-23T02:23:32.421Z,0.00
2023-04-23T02:24:33.293Z,0.00
2023-04-23T02:25:34.152Z,0.00
2023-04-23T02:25:51.458Z,0.00
2023-04-23T02:26:47.454Z,0.00
2023-04-23T02:27:47.998Z,0.00
2023-04-23T02:28:48.460Z,0.00
2023-04-23T02:29:48.872Z,0.00
2023-04-23T02:30:49.486Z,0.00
2023-04-23T02:31:50.701Z,0.00
2023-04-23T02:32:49.930Z,0.00
2023-04-23T02:33:50.219Z,0.00
2023-04-23T02:34:50.927Z,0.00
2023-04-23T02:35:50.992Z,0.00
2023-04-23T02:36:51.945Z,0.00
2023-04-23T02:37:52.436Z,0.00
2023-04-23T02:38:01.029Z,0.00
2023-04-23T02:39:01.556Z,0.00
2023-04-23T02:40:01.706Z,0.00
2023-04-23T02:41:02.419Z,0.00
2023-04-23T02:42:02.435Z,0.00
2023-04-23T02:43:02.446Z,0.00
2023-04-23T02:44:02.459Z,0.00
2023-04-23T02:45:02.991Z,0.00
2023-04-23T02:46:05.011Z,0.00
2023-04-23T02:47:04.557Z,0.00
2023-04-23T02:48:05.132Z,0.00
2023-04-23T02:49:05.142Z,0.00
2023-04-23T02:49:16.273Z,0.00
2023-04-23T02:50:17.216Z,0.00
2023-04-23T02:51:17.445Z,0.00
2023-04-23T02:52:18.380Z,0.00
2023-04-23T02:53:18.945Z,0.00
2023-04-23T02:54:19.775Z,0.00
2023-04-23T02:55:20.763Z,0.00
2023-04-23T02:56:21.510Z,0.00
2023-04-23T02:57:21.741Z,0.00
2023-04-23T02:58:22.739Z,0.00
2023-04-23T02:59:23.192Z,0.00
2023-04-23T03:00:24.202Z,0.00
2023-04-23T03:00:33.801Z,0.00
2023-04-23T03:01:34.394Z,0.00
2023-04-23T03:02:35.076Z,0.00
2023-04-23T03:03:35.810Z,0.00
2023-04-23T03:04:35.825Z,0.00
2023-04-23T03:05:36.862Z,0.00
2023-04-23T03:06:35.970Z,0.00
2023-04-23T03:07:37.650Z,0.00
2023-04-23T03:08:36.763Z,0.00
2023-04-23T03:09:38.112Z,0.00
2023-04-23T03:10:37.744Z,0.00
2023-04-23T03:11:38.599Z,0.00
2023-04-23T03:12:02.268Z,0.00
2023-04-23T03:13:03.251Z,0.00
2023-04-23T03:14:03.441Z,0.00
2023-04-23T03:15:04.067Z,0.00
2023-04-23T03:16:04.728Z,0.00
2023-04-23T03:17:05.616Z,0.00
2023-04-23T03:18:06.169Z,0.00
2023-04-23T03:19:06.821Z,0.00
2023-04-23T03:20:07.449Z,0.00
2023-04-23T03:21:07.803Z,0.00
2023-04-23T03:22:07.864Z,0.00
2023-04-23T03:23:08.347Z,0.00
2023-04-23T03:24:08.931Z,0.00
2023-04-23T03:24:23.576Z,0.00
2023-04-23T03:25:23.787Z,0.00
2023-04-23T03:26:23.925Z,0.00
2023-04-23T03:27:24.614Z,0.05
2023-04-23T03:28:25.266Z,0.05
2023-04-23T03:29:25.972Z,0.05
2023-04-23T03:30:26.607Z,0.05
2023-04-23T03:31:27.407Z,0.05
2023-04-23T03:32:27.956Z,0.05
2023-04-23T03:33:28.745Z,0.05
2023-04-23T03:34:29.738Z,0.05
2023-04-23T03:34:40.072Z,0.05
2023-04-23T03:35:39.954Z,0.09
2023-04-23T03:36:40.710Z,0.14
2023-04-23T03:37:41.003Z,0.14
2023-04-23T03:38:41.536Z,0.18
2023-04-23T03:39:42.235Z,0.18
2023-04-23T03:40:43.196Z,0.27
2023-04-23T03:41:44.189Z,0.27
2023-04-23T03:42:44.343Z,0.31
2023-04-23T03:43:44.315Z,0.41
2023-04-23T03:44:45.214Z,0.45
2023-04-23T03:45:45.876Z,0.58
2023-04-23T03:45:56.560Z,0.58
2023-04-23T03:46:57.159Z,0.72
2023-04-23T03:47:57.982Z,0.81
2023-04-23T03:48:58.593Z,0.99
2023-04-23T03:49:59.575Z,1.17
2023-04-23T03:51:00.251Z,1.44
2023-04-23T03:52:01.168Z,1.66
2023-04-23T03:53:01.194Z,1.98
2023-04-23T03:54:01.353Z,2.38
2023-04-23T03:55:02.043Z,2.79
2023-04-23T03:56:02.652Z,3.29
2023-04-23T03:57:02.869Z,3.73
2023-04-23T03:58:03.493Z,4.32
2023-04-23T03:58:14.242Z,4.41
2023-04-23T03:59:14.931Z,5.04
2023-04-23T04:00:15.671Z,5.85
2023-04-23T04:01:16.011Z,6.80
2023-04-23T04:02:16.870Z,7.97
2023-04-23T04:03:17.461Z,9.40
2023-04-23T04:04:18.166Z,10.94
2023-04-23T04:05:18.432Z,12.60
2023-04-23T04:06:18.382Z,14.49
2023-04-23T04:07:18.573Z,16.38
2023-04-23T04:08:18.767Z,18.81
2023-04-23T04:09:19.315Z,21.69
2023-04-23T04:10:20.259Z,25.02
2023-04-23T04:10:28.977Z,25.56
2023-04-23T04:11:29.382Z,28.98
2023-04-23T04:12:29.517Z,32.94
2023-04-23T04:13:29.605Z,37.44
2023-04-23T04:14:29.727Z,43.02
2023-04-23T04:15:29.739Z,49.68
2023-04-23T04:16:30.107Z,58.32
2023-04-23T04:17:30.773Z,69.12
2023-04-23T04:18:30.695Z,78.48
2023-04-23T04:19:30.862Z,88.20
2023-04-23T04:20:31.500Z,99.36
2023-04-23T04:21:32.025Z,109.44
2023-04-23T04:22:32.747Z,122.40
2023-04-23T04:22:42.435Z,124.56
2023-04-23T04:23:43.284Z,136.80
2023-04-23T04:24:44.229Z,149.04
2023-04-23T04:25:44.829Z,162.00
2023-04-23T04:26:45.453Z,176.40
2023-04-23T04:27:46.064Z,192.96
2023-04-23T04:28:46.096Z,213.12
2023-04-23T04:29:47.072Z,234.72
2023-04-23T04:30:47.619Z,257.76
2023-04-23T04:31:48.390Z,279.36
2023-04-23T04:32:48.634Z,302.40
2023-04-23T04:33:48.659Z,328.32
2023-04-23T04:33:57.882Z,331.20
2023-04-23T04:34:58.575Z,354.24
2023-04-23T04:35:58.717Z,377.28
2023-04-23T04:36:59.302Z,403.20
2023-04-23T04:38:00.989Z,429.12
2023-04-23T04:39:00.672Z,460.80
2023-04-23T04:40:01.174Z,495.36
2023-04-23T04:41:01.377Z,529.92
2023-04-23T04:42:02.080Z,564.48
2023-04-23T04:43:02.848Z,596.16
2023-04-23T04:44:03.637Z,622.08
2023-04-23T04:45:03.927Z,633.60
2023-04-23T04:45:21.640Z,639.36
2023-04-23T04:46:22.345Z,656.64
2023-04-23T04:47:22.689Z,682.56
2023-04-23T04:48:22.861Z,714.24
2023-04-23T04:49:23.425Z,748.80
2023-04-23T04:50:24.147Z,783.36
2023-04-23T04:51:25.006Z,823.68
2023-04-23T04:52:25.886Z,864.00
2023-04-23T04:53:26.392Z,898.56
2023-04-23T04:54:27.228Z,938.88
2023-04-23T04:55:27.336Z,973.44
2023-04-23T04:56:27.853Z,1105.92
2023-04-23T04:57:28.795Z,1146.24
2023-04-23T04:57:37.473Z,1152.00
2023-04-23T04:58:37.718Z,1180.80
2023-04-23T04:59:38.572Z,1226.88
2023-04-23T05:00:38.761Z,1296.00
2023-04-23T05:01:39.451Z,1382.40
2023-04-23T05:02:39.816Z,1509.12
2023-04-23T05:03:40.409Z,1658.88
2023-04-23T05:04:41.443Z,1854.72
2023-04-23T05:05:41.903Z,2119.68
2023-04-23T05:06:42.518Z,2327.04
2023-04-23T05:07:43.073Z,2442.24
2023-04-23T05:08:43.670Z,2465.28
2023-04-23T05:08:53.827Z,2465.28
2023-04-23T05:09:54.549Z,2511.36
2023-04-23T05:10:55.331Z,2499.84
2023-04-23T05:11:55.925Z,2511.36
2023-04-23T05:12:57.090Z,2534.40
2023-04-23T05:13:56.690Z,2580.48
2023-04-23T05:14:58.217Z,2603.52
2023-04-23T05:15:58.183Z,2615.04
2023-04-23T05:16:59.891Z,2592.00
2023-04-23T05:17:59.468Z,2557.44
2023-04-23T05:18:59.921Z,2522.88
2023-04-23T05:20:00.535Z,2545.92
2023-04-23T05:20:09.609Z,2557.44
2023-04-23T05:21:10.372Z,2845.44
2023-04-23T05:22:10.548Z,3502.08
2023-04-23T05:23:11.417Z,4285.44
2023-04-23T05:24:12.295Z,4354.56
2023-04-23T05:25:12.974Z,4976.64
2023-04-23T05:26:13.589Z,4907.52
2023-04-23T05:27:14.272Z,4631.04
2023-04-23T05:28:15.122Z,4262.40
2023-04-23T05:29:16.814Z,2338.56
2023-04-23T05:30:16.501Z,2649.60
2023-04-23T05:30:25.137Z,2695.68
2023-04-23T05:31:27.039Z,2753.28
2023-04-23T05:32:26.165Z,2396.16
2023-04-23T05:33:30.616Z,2684.16
2023-04-23T05:34:27.183Z,4446.72
2023-04-23T05:35:27.757Z,2926.08
2023-04-23T05:36:29.251Z,3087.36
2023-04-23T05:37:29.000Z,3617.28
2023-04-23T05:38:30.917Z,3525.12
2023-04-23T05:39:30.491Z,3087.36
2023-04-23T05:40:31.012Z,3824.64
2023-04-23T05:41:31.510Z,3432.96
2023-04-23T05:41:45.589Z,4377.60
2023-04-23T05:42:46.367Z,6220.80
2023-04-23T05:43:46.392Z,6266.88
2023-04-23T05:44:47.197Z,3087.36
2023-04-23T05:45:47.366Z,6312.96
2023-04-23T05:46:48.024Z,3248.64
2023-04-23T05:47:48.083Z,4078.08
2023-04-23T05:48:48.050Z,7649.28
2023-04-23T05:49:48.561Z,7603.20
2023-04-23T05:50:48.995Z,7511.04
2023-04-23T05:51:49.586Z,4976.64
2023-04-23T05:52:50.219Z,2707.20
2023-04-23T05:52:59.410Z,2684.16
2023-04-23T05:53:59.842Z,2603.52
2023-04-23T05:55:00.527Z,2568.96
2023-04-23T05:56:00.554Z,2615.04
2023-04-23T05:57:01.037Z,2707.20
2023-04-23T05:58:01.832Z,2810.88
2023-04-23T05:59:02.820Z,2880.00
2023-04-23T06:00:03.494Z,2914.56
2023-04-23T06:01:03.497Z,2949.12
2023-04-23T06:02:03.576Z,3041.28
2023-04-23T06:03:04.207Z,3179.52
2023-04-23T06:04:05.205Z,3294.72
2023-04-23T06:05:05.959Z,3294.72
2023-04-23T06:06:06.345Z,3202.56
2023-04-23T06:06:17.445Z,3179.52
2023-04-23T06:07:17.633Z,2995.20
2023-04-23T06:08:18.465Z,2880.00
2023-04-23T06:09:18.975Z,2822.40
2023-04-23T06:10:19.856Z,2799.36
2023-04-23T06:11:20.482Z,2787.84
2023-04-23T06:12:21.073Z,2845.44
2023-04-23T06:13:21.741Z,2972.16
2023-04-23T06:14:22.073Z,3156.48
2023-04-23T06:15:22.744Z,3340.80
2023-04-23T06:16:23.364Z,3548.16
2023-04-23T06:17:23.988Z,3709.44
2023-04-23T06:17:37.544Z,3755.52
2023-04-23T06:18:38.867Z,3824.64
2023-04-23T06:19:38.736Z,3755.52
2023-04-23T06:20:39.466Z,3663.36
2023-04-23T06:21:40.480Z,3548.16
2023-04-23T06:22:40.050Z,3525.12
2023-04-23T06:23:41.657Z,3525.12
2023-04-23T06:24:41.552Z,3525.12
2023-04-23T06:25:41.771Z,3502.08
2023-04-23T06:26:42.420Z,3525.12
2023-04-23T06:27:43.357Z,3663.36
2023-04-23T06:27:56.517Z,3709.44
2023-04-23T06:28:56.791Z,3893.76
2023-04-23T06:29:57.494Z,3939.84
2023-04-23T06:30:57.698Z,3893.76
2023-04-23T06:31:58.243Z,3801.60
2023-04-23T06:32:58.821Z,3709.44
2023-04-23T06:33:59.455Z,3663.36
2023-04-23T06:35:02.065Z,3640.32
2023-04-23T06:35:59.554Z,3640.32
2023-04-23T06:37:00.202Z,3617.28
2023-04-23T06:38:01.064Z,3594.24
2023-04-23T06:38:08.817Z,3594.24
2023-04-23T06:39:09.582Z,3640.32
2023-04-23T06:40:10.110Z,3732.48
2023-04-23T06:41:10.800Z,3916.80
2023-04-23T06:42:10.989Z,4147.20
2023-04-23T06:43:12.604Z,4423.68
2023-04-23T06:44:11.863Z,4723.20
2023-04-23T06:45:12.671Z,5045.76
2023-04-23T06:46:13.104Z,5368.32
2023-04-23T06:47:13.653Z,5760.00
2023-04-23T06:48:13.994Z,6220.80
2023-04-23T06:49:14.657Z,6727.68
2023-04-23T06:50:14.660Z,7004.16
2023-04-23T06:51:15.557Z,6865.92
2023-04-23T06:52:16.447Z,6543.36
2023-04-23T06:52:25.385Z,6497.28
2023-04-23T06:53:26.334Z,6128.64
2023-04-23T06:54:26.412Z,5898.24
2023-04-23T06:55:26.728Z,5875.20
2023-04-23T06:56:27.505Z,6174.72
2023-04-23T06:57:27.547Z,6912.00
2023-04-23T06:58:27.928Z,8110.08
2023-04-23T06:59:28.412Z,9584.64
2023-04-23T07:00:28.435Z,8478.72
2023-04-23T07:01:29.072Z,8110.08
2023-04-23T07:02:29.463Z,7787.52
2023-04-23T07:02:42.362Z,7833.60
2023-04-23T07:03:44.925Z,7787.52
2023-04-23T07:04:43.470Z,8294.40
2023-04-23T07:05:43.854Z,9815.04
2023-04-23T07:06:44.636Z,12257.28
2023-04-23T07:07:46.060Z,12072.96
2023-04-23T07:08:45.720Z,8110.08
2023-04-23T07:09:46.477Z,7695.36
2023-04-23T07:10:47.156Z,9815.04
2023-04-23T07:11:47.779Z,13731.84
2023-04-23T07:12:47.931Z,24145.92
2023-04-23T07:12:59.690Z,23777.28
2023-04-23T07:13:59.914Z,23777.28
2023-04-23T07:15:00.877Z,23777.28
2023-04-23T07:16:01.642Z,24145.92
2023-04-23T07:17:02.652Z,24330.24
2023-04-23T07:18:03.442Z,24883.20
2023-04-23T07:19:03.422Z,25251.84
2023-04-23T07:20:04.201Z,24330.24
2023-04-23T07:21:04.382Z,10598.40
2023-04-23T07:22:05.458Z,13547.52
2023-04-23T07:23:04.673Z,11704.32
2023-04-23T07:24:05.592Z,9077.76
2023-04-23T07:24:17.755Z,8709.12
2023-04-23T07:25:17.795Z,6405.12
2023-04-23T07:26:19.586Z,6912.00
2023-04-23T07:27:19.342Z,8110.08
2023-04-23T07:28:19.598Z,7741.44
2023-04-23T07:29:20.317Z,7557.12
2023-04-23T07:30:20.848Z,6405.12
2023-04-23T07:31:21.061Z,5875.20
2023-04-23T07:32:21.847Z,5829.12
2023-04-23T07:33:22.606Z,5575.68
2023-04-23T07:34:23.548Z,5253.12
2023-04-23T07:35:24.156Z,4700.16
2023-04-23T07:35:34.750Z,4584.96
2023-04-23T07:36:35.597Z,3801.60
2023-04-23T07:37:36.250Z,3294.72
2023-04-23T07:38:36.837Z,2649.60
2023-04-23T07:39:36.997Z,2177.28
2023-04-23T07:40:37.024Z,2016.00
2023-04-23T07:41:37.637Z,2338.56
2023-04-23T07:42:39.477Z,2649.60
2023-04-23T07:43:39.080Z,2868.48
2023-04-23T07:44:39.673Z,3087.36
2023-04-23T07:45:40.411Z,3363.84
2023-04-23T07:46:41.124Z,3893.76
2023-04-23T07:46:50.980Z,3985.92
2023-04-23T07:47:51.880Z,4654.08
2023-04-23T07:48:52.798Z,5437.44
2023-04-23T07:49:53.456Z,5852.16
2023-04-23T07:50:53.997Z,5529.60
2023-04-23T07:51:54.769Z,5806.08
2023-04-23T07:52:55.682Z,6727.68
2023-04-23T07:53:56.109Z,7188.48
2023-04-23T07:54:56.688Z,7511.04
2023-04-23T07:55:57.424Z,8017.92
2023-04-23T07:56:59.086Z,7741.44
2023-04-23T07:57:09.236Z,7695.36
2023-04-23T07:58:09.963Z,7695.36
2023-04-23T07:59:10.123Z,7925.76
2023-04-23T08:00:10.700Z,8017.92
2023-04-23T08:01:10.992Z,8524.80
2023-04-23T08:02:11.965Z,9354.24
2023-04-23T08:03:12.855Z,9308.16
2023-04-23T08:04:13.618Z,8294.40
2023-04-23T08:05:14.059Z,7603.20
2023-04-23T08:06:14.730Z,8156.16
2023-04-23T08:07:15.675Z,9169.92
2023-04-23T08:08:16.004Z,8847.36
2023-04-23T08:09:16.632Z,8386.56
2023-04-23T08:09:25.302Z,8294.40
2023-04-23T08:10:26.022Z,7464.96
2023-04-23T08:11:27.487Z,7741.44
2023-04-23T08:12:27.253Z,8202.24
2023-04-23T08:13:27.340Z,9538.56
2023-04-23T08:14:27.717Z,10368.00
2023-04-23T08:15:28.771Z,9077.76
2023-04-23T08:16:30.819Z,8202.24
2023-04-23T08:17:30.146Z,8294.40
2023-04-23T08:18:30.233Z,9400.32
2023-04-23T08:19:30.828Z,22118.40
2023-04-23T08:20:31.508Z,9169.92
2023-04-23T08:20:43.198Z,8985.60
2023-04-23T08:21:43.411Z,8064.00
2023-04-23T08:22:43.572Z,7372.80
2023-04-23T08:23:43.774Z,7372.80
2023-04-23T08:24:44.448Z,6220.80
2023-04-23T08:25:45.097Z,5552.64
2023-04-23T08:26:45.133Z,6082.56
2023-04-23T08:27:45.894Z,7280.64
2023-04-23T08:28:46.580Z,7050.24
2023-04-23T08:29:47.262Z,6497.28
2023-04-23T08:30:47.971Z,6220.80
2023-04-23T08:31:47.959Z,5783.04
2023-04-23T08:32:48.868Z,5575.68
2023-04-23T08:32:57.076Z,5598.72
2023-04-23T08:33:57.752Z,6036.48
2023-04-23T08:34:58.545Z,6497.28
2023-04-23T08:35:59.226Z,7418.88
2023-04-23T08:36:59.555Z,8709.12
2023-04-23T08:38:00.199Z,10598.40
2023-04-23T08:39:00.531Z,11980.80
2023-04-23T08:40:01.197Z,10460.16
2023-04-23T08:41:01.349Z,9077.76
2023-04-23T08:42:02.011Z,9077.76
2023-04-23T08:43:02.667Z,8847.36
2023-04-23T08:44:03.285Z,8801.28
2023-04-23T08:45:03.367Z,16496.64
2023-04-23T08:46:04.234Z,7096.32
2023-04-23T08:46:12.769Z,7050.24
2023-04-23T08:47:12.814Z,6497.28
2023-04-23T08:48:13.693Z,5990.40
2023-04-23T08:49:14.248Z,5575.68
2023-04-23T08:50:14.303Z,5299.20
2023-04-23T08:51:14.961Z,5322.24
2023-04-23T08:52:16.619Z,5575.68
2023-04-23T08:53:16.673Z,6036.48
2023-04-23T08:54:16.916Z,7418.88
2023-04-23T08:55:17.667Z,7787.52
2023-04-23T08:56:18.243Z,8432.64
2023-04-23T08:57:18.922Z,9722.88
2023-04-23T08:57:27.645Z,8801.28
2023-04-23T08:58:28.402Z,7695.36
2023-04-23T08:59:28.401Z,10368.00
2023-04-23T09:00:30.020Z,25436.16
2023-04-23T09:01:29.623Z,17418.24
2023-04-23T09:02:30.305Z,36311.04
2023-04-23T09:03:30.579Z,10920.96
2023-04-23T09:04:31.091Z,19998.72
2023-04-23T09:05:31.744Z,16220.16
2023-04-23T09:06:32.341Z,12441.60
2023-04-23T09:07:32.693Z,11013.12
2023-04-23T09:08:32.693Z,11013.12
2023-04-23T09:09:32.969Z,8616.96
2023-04-23T09:09:42.271Z,8202.24
2023-04-23T09:10:42.686Z,6635.52
2023-04-23T09:11:42.854Z,6819.84
2023-04-23T09:12:43.584Z,7649.28
2023-04-23T09:13:44.397Z,8017.92
2023-04-23T09:14:45.807Z,7511.04
2023-04-23T09:15:46.457Z,28385.28
2023-04-23T09:16:47.354Z,42209.28
2023-04-23T09:17:47.212Z,47185.92
2023-04-23T09:18:47.982Z,23961.60
2023-04-23T09:19:03.541Z,14929.92
2023-04-23T09:20:03.969Z,20736.00
2023-04-23T09:21:04.935Z,11059.20
2023-04-23T09:22:04.943Z,9768.96
2023-04-23T09:23:05.801Z,9308.16
2023-04-23T09:24:06.327Z,9584.64
2023-04-23T09:25:06.962Z,21657.60
2023-04-23T09:26:07.983Z,10736.64
2023-04-23T09:27:08.879Z,10321.92
2023-04-23T09:28:09.009Z,12625.92
2023-04-23T09:29:09.136Z,12994.56
2023-04-23T09:30:10.068Z,13178.88
2023-04-23T09:31:10.909Z,13731.84
2023-04-23T09:32:11.937Z,11888.64
2023-04-23T09:33:12.718Z,10414.08
2023-04-23T09:34:13.470Z,10690.56
2023-04-23T09:35:14.547Z,11704.32
2023-04-23T09:36:14.443Z,12810.24
2023-04-23T09:36:25.774Z,12902.40
2023-04-23T09:37:25.650Z,13547.52
2023-04-23T09:38:26.498Z,15206.40
2023-04-23T09:39:27.325Z,12165.12
2023-04-23T09:40:28.208Z,12349.44
2023-04-23T09:41:29.068Z,13824.00
2023-04-23T09:42:29.968Z,14929.92
2023-04-23T09:43:31.134Z,15022.08
2023-04-23T09:44:32.048Z,18524.16
2023-04-23T09:45:32.021Z,14192.64
2023-04-23T09:46:32.604Z,14561.28
2023-04-23T09:47:33.578Z,12994.56
2023-04-23T09:48:34.356Z,11980.80
2023-04-23T09:49:34.498Z,11980.80
2023-04-23T09:50:35.406Z,12257.28
2023-04-23T09:51:37.330Z,12349.44
2023-04-23T09:52:36.472Z,13547.52
2023-04-23T09:53:39.154Z,23592.96
2023-04-23T09:54:37.505Z,18339.84
2023-04-23T09:58:28.349Z,12810.24
2023-04-23T09:59:39.602Z,11520.00
2023-04-23T10:00:33.201Z,10644.48
2023-04-23T10:01:29.035Z,9953.28
2023-04-23T10:02:29.036Z,9446.40
2023-04-23T10:03:29.945Z,9031.68
2023-04-23T10:04:30.026Z,8755.20
2023-04-23T10:07:32.416Z,8755.20
2023-04-23T10:08:34.605Z,9123.84
2023-04-23T10:09:33.497Z,9722.88
2023-04-23T10:10:36.349Z,10368.00
2023-04-23T10:11:35.120Z,10460.16
2023-04-23T10:12:52.318Z,10091.52
2023-04-23T10:12:55.226Z,9953.28
2023-04-23T10:13:53.505Z,9999.36
2023-04-23T10:14:54.145Z,11197.44
2023-04-23T10:15:56.830Z,13731.84
2023-04-23T10:16:55.196Z,21196.80
2023-04-23T10:17:55.914Z,25989.12
2023-04-23T10:18:56.102Z,28753.92
2023-04-23T10:19:56.915Z,28569.60
2023-04-23T10:20:58.769Z,27463.68
2023-04-23T10:22:05.136Z,22394.88
2023-04-23T10:22:57.979Z,25067.52
2023-04-23T10:23:58.902Z,22118.40
2023-04-23T10:24:58.989Z,25436.16
2023-04-23T10:25:59.148Z,27095.04
2023-04-23T10:27:01.974Z,23961.60
2023-04-23T10:28:00.968Z,23592.96
2023-04-23T10:29:01.859Z,14100.48
2023-04-23T10:30:05.978Z,11520.00
2023-04-23T10:31:06.390Z,10091.52
2023-04-23T10:32:04.334Z,9308.16
2023-04-23T10:34:22.390Z,8801.28
2023-04-23T10:35:18.428Z,10091.52
2023-04-23T10:36:19.327Z,10828.80
2023-04-23T10:37:20.284Z,10229.76
2023-04-23T10:38:20.370Z,8386.56
2023-04-23T10:39:29.709Z,8017.92
2023-04-23T10:40:24.157Z,8663.04
2023-04-23T10:41:24.749Z,9907.20
2023-04-23T10:42:22.765Z,9815.04
2023-04-23T10:43:23.367Z,10644.48
2023-04-23T10:44:38.541Z,11704.32
2023-04-23T10:45:25.821Z,11566.08
2023-04-23T10:46:25.260Z,11105.28
2023-04-23T10:47:26.138Z,11059.20
2023-04-23T10:48:26.926Z,10414.08
2023-04-23T10:49:30.670Z,10967.04
2023-04-23T10:50:28.097Z,11612.16
2023-04-23T10:52:10.051Z,11381.76
2023-04-23T10:52:30.928Z,11888.64
2023-04-23T10:53:33.047Z,11520.00
2023-04-23T10:54:31.964Z,11013.12
2023-04-23T10:55:36.516Z,10874.88
2023-04-23T10:56:32.749Z,10644.48
2023-04-23T10:57:33.645Z,10644.48
2023-04-23T10:58:34.460Z,10828.80
2023-04-23T10:59:35.447Z,10552.32
2023-04-23T11:00:39.226Z,10137.60
2023-04-23T11:01:39.723Z,9584.64
2023-04-23T11:02:38.066Z,9123.84
2023-04-23T11:03:44.837Z,8709.12
2023-04-23T11:04:38.965Z,8709.12
2023-04-23T11:05:39.602Z,8017.92
2023-04-23T11:06:40.479Z,7234.56
2023-04-23T11:07:40.898Z,6865.92
2023-04-23T11:08:41.061Z,6865.92
2023-04-23T11:09:41.543Z,7464.96
2023-04-23T11:10:42.124Z,8847.36
2023-04-23T11:11:43.089Z,10782.72
2023-04-23T11:12:46.581Z,12533.76
2023-04-23T11:13:45.618Z,13824.00
2023-04-23T11:14:44.853Z,14469.12
2023-04-23T11:15:45.004Z,15851.52
2023-04-23T11:16:46.074Z,18892.80
2023-04-23T11:17:46.209Z,18984.96
2023-04-23T11:18:51.074Z,22210.56
2023-04-23T11:19:47.231Z,25804.80
2023-04-23T11:20:48.313Z,25251.84
2023-04-23T11:21:48.646Z,23408.64
2023-04-23T11:23:52.750Z,22671.36
2023-04-23T11:24:51.936Z,31334.40
2023-04-23T11:25:52.858Z,43315.20
2023-04-23T11:29:19.921Z,52715.52
2023-04-23T11:30:20.227Z,56033.28
2023-04-23T11:31:21.144Z,60456.96
2023-04-23T11:32:24.361Z,49029.12
2023-04-23T11:33:22.449Z,52346.88
2023-04-23T11:34:22.966Z,36495.36
2023-04-23T11:36:01.530Z,33177.60
2023-04-23T11:37:07.581Z,32993.28
2023-04-23T11:38:01.721Z,38707.20
2023-04-23T11:39:01.940Z,39444.48
2023-04-23T11:40:05.126Z,42209.28
2023-04-23T11:43:19.301Z,39444.48
2023-04-23T11:44:18.184Z,45711.36
2023-04-23T11:45:19.050Z,40919.04
2023-04-23T11:46:19.971Z,20551.68
2023-04-23T11:47:20.561Z,29675.52
2023-04-23T11:48:20.811Z,37785.60
2023-04-23T11:49:21.589Z,32440.32
2023-04-23T11:50:22.555Z,44052.48
2023-04-23T11:51:23.400Z,36126.72
2023-04-23T11:52:27.102Z,30044.16
2023-04-23T11:52:43.851Z,30044.16
2023-04-23T11:53:42.479Z,26910.72
2023-04-23T11:54:43.301Z,27832.32
2023-04-23T11:55:44.281Z,26357.76
2023-04-23T11:56:44.678Z,30044.16
2023-04-23T11:57:45.375Z,27463.68
2023-04-23T11:58:45.432Z,23961.60
2023-04-23T11:59:47.363Z,22855.68
2023-04-23T12:00:46.567Z,23777.28
2023-04-23T12:01:47.367Z,21381.12
2023-04-23T12:02:48.254Z,21657.60